Terminal Aerodrome Forecast
Issued by NWS

Home | Current Version | Previous Version | Text Only | Print | Product List | Glossary On
Versions: 1 2 3 4 5 6 7 8 9 10 11 12 13 14 15
000
FTUS46 KSEW 301100
TAFBLI
TAF
KBLI 301137Z 3012/3112 17006KT P6SM VCSH SCT025 BKN050 OVC100
      TEMPO 3014/3018 5SM -SHRA BR BKN025 OVC050
     FM302100 17010KT P6SM VCSH SCT035 BKN070
     FM310800 17007KT P6SM SCT025 BKN050=

USA.gov is the U.S. government's official web portal to all federal, state and local government web resources and services.